sensor_id;sensor_type;location;lat;lon;timestamp;pressure;altitude;pressure_sealevel;temperature;humidity
46710;BME280;32442;51.514;-0.178;2022-10-16T00:00:52;100315.31;;;21.28;50.65
46710;BME280;32442;51.514;-0.178;2022-10-16T00:03:19;100308.84;;;21.28;50.47
46710;BME280;32442;51.514;-0.178;2022-10-16T00:05:46;100318.44;;;21.27;50.53
46710;BME280;32442;51.514;-0.178;2022-10-16T00:08:12;100317.97;;;21.25;50.46
46710;BME280;32442;51.514;-0.178;2022-10-16T00:10:40;100326.38;;;21.25;50.28
46710;BME280;32442;51.514;-0.178;2022-10-16T00:13:07;100317.44;;;21.23;50.40
46710;BME280;32442;51.514;-0.178;2022-10-16T00:15:35;100313.50;;;21.24;50.43
46710;BME280;32442;51.514;-0.178;2022-10-16T00:18:05;100323.06;;;21.23;50.67
46710;BME280;32442;51.514;-0.178;2022-10-16T00:20:34;100325.41;;;21.21;50.92
46710;BME280;32442;51.514;-0.178;2022-10-16T00:23:03;100327.38;;;21.20;50.63
46710;BME280;32442;51.514;-0.178;2022-10-16T00:25:31;100331.34;;;21.19;50.77
46710;BME280;32442;51.514;-0.178;2022-10-16T00:27:59;100334.47;;;21.18;50.75
46710;BME280;32442;51.514;-0.178;2022-10-16T00:30:26;100338.41;;;21.17;50.72
46710;BME280;32442;51.514;-0.178;2022-10-16T00:32:54;100331.16;;;21.16;50.86
46710;BME280;32442;51.514;-0.178;2022-10-16T00:35:21;100334.28;;;21.14;50.77
46710;BME280;32442;51.514;-0.178;2022-10-16T00:37:48;100335.44;;;21.13;51.08
46710;BME280;32442;51.514;-0.178;2022-10-16T00:40:14;100337.72;;;21.11;51.12
46710;BME280;32442;51.514;-0.178;2022-10-16T00:42:41;100340.53;;;21.11;51.03
46710;BME280;32442;51.514;-0.178;2022-10-16T00:45:08;100340.84;;;21.10;51.45
46710;BME280;32442;51.514;-0.178;2022-10-16T00:47:39;100339.19;;;21.09;51.43
46710;BME280;32442;51.514;-0.178;2022-10-16T00:50:16;100337.53;;;21.08;51.64
46710;BME280;32442;51.514;-0.178;2022-10-16T00:52:46;100334.72;;;21.08;51.72
46710;BME280;32442;51.514;-0.178;2022-10-16T00:55:13;100337.53;;;21.08;51.45
46710;BME280;32442;51.514;-0.178;2022-10-16T00:57:40;100335.06;;;21.06;51.89
46710;BME280;32442;51.514;-0.178;2022-10-16T01:00:08;100345.78;;;21.04;51.94
46710;BME280;32442;51.514;-0.178;2022-10-16T01:02:35;100338.19;;;21.05;51.78
46710;BME280;32442;51.514;-0.178;2022-10-16T01:05:02;100347.78;;;21.04;51.65
46710;BME280;32442;51.514;-0.178;2022-10-16T01:10:01;100352.91;;;21.02;51.66
46710;BME280;32442;51.514;-0.178;2022-10-16T01:15:08;100360.50;;;21.01;51.95
46710;BME280;32442;51.514;-0.178;2022-10-16T01:17:39;100370.38;;;20.99;51.75
46710;BME280;32442;51.514;-0.178;2022-10-16T01:20:10;100368.41;;;20.99;52.08
46710;BME280;32442;51.514;-0.178;2022-10-16T01:25:25;100365.44;;;20.96;51.94
46710;BME280;32442;51.514;-0.178;2022-10-16T01:27:56;100367.09;;;20.97;52.18
46710;BME280;32442;51.514;-0.178;2022-10-16T01:30:25;100372.19;;;20.95;52.08
46710;BME280;32442;51.514;-0.178;2022-10-16T01:32:53;100369.75;;;20.93;52.21
46710;BME280;32442;51.514;-0.178;2022-10-16T01:40:21;100382.44;;;20.91;52.15
46710;BME280;32442;51.514;-0.178;2022-10-16T01:42:52;100388.88;;;20.91;52.37
46710;BME280;32442;51.514;-0.178;2022-10-16T01:45:19;100382.78;;;20.89;52.18
46710;BME280;32442;51.514;-0.178;2022-10-16T01:47:46;100383.09;;;20.88;52.15
46710;BME280;32442;51.514;-0.178;2022-10-16T01:50:14;100383.09;;;20.88;52.14
46710;BME280;32442;51.514;-0.178;2022-10-16T01:52:43;100390.69;;;20.87;52.13
46710;BME280;32442;51.514;-0.178;2022-10-16T01:55:11;100384.22;;;20.86;52.19
46710;BME280;32442;51.514;-0.178;2022-10-16T01:57:40;100380.28;;;20.88;52.37
46710;BME280;32442;51.514;-0.178;2022-10-16T02:00:09;100384.22;;;20.86;52.21
46710;BME280;32442;51.514;-0.178;2022-10-16T02:02:37;100384.22;;;20.86;52.25
46710;BME280;32442;51.514;-0.178;2022-10-16T02:05:08;100392.66;;;20.86;52.20
46710;BME280;32442;51.514;-0.178;2022-10-16T02:07:36;100382.56;;;20.85;52.30
46710;BME280;32442;51.514;-0.178;2022-10-16T02:10:03;100392.50;;;20.83;52.54
46710;BME280;32442;51.514;-0.178;2022-10-16T02:12:31;100398.09;;;20.83;52.60
46710;BME280;32442;51.514;-0.178;2022-10-16T02:14:58;100398.41;;;20.81;52.41
46710;BME280;32442;51.514;-0.178;2022-10-16T02:17:26;100398.41;;;20.81;52.65
46710;BME280;32442;51.514;-0.178;2022-10-16T02:19:54;100411.63;;;20.81;52.51
46710;BME280;32442;51.514;-0.178;2022-10-16T02:24:52;100415.91;;;20.78;52.62
46710;BME280;32442;51.514;-0.178;2022-10-16T02:27:40;100415.09;;;20.78;52.80
46710;BME280;32442;51.514;-0.178;2022-10-16T02:32:35;100413.13;;;20.78;52.68
46710;BME280;32442;51.514;-0.178;2022-10-16T02:35:03;100408.63;;;20.77;52.72
46710;BME280;32442;51.514;-0.178;2022-10-16T02:37:30;100415.41;;;20.76;52.92
46710;BME280;32442;51.514;-0.178;2022-10-16T02:39:58;100421.00;;;20.76;52.87
46710;BME280;32442;51.514;-0.178;2022-10-16T02:42:37;100415.41;;;20.76;52.69
46710;BME280;32442;51.514;-0.178;2022-10-16T02:45:05;100427.81;;;20.75;52.49
46710;BME280;32442;51.514;-0.178;2022-10-16T02:47:32;100428.13;;;20.74;52.98
46710;BME280;32442;51.514;-0.178;2022-10-16T02:49:58;100429.59;;;20.71;52.81
46710;BME280;32442;51.514;-0.178;2022-10-16T02:52:25;100440.00;;;20.71;52.80
46710;BME280;32442;51.514;-0.178;2022-10-16T02:54:52;100438.34;;;20.70;52.87
46710;BME280;32442;51.514;-0.178;2022-10-16T02:57:19;100441.47;;;20.68;53.02
46710;BME280;32442;51.514;-0.178;2022-10-16T02:59:45;100448.56;;;20.66;52.84
46710;BME280;32442;51.514;-0.178;2022-10-16T03:02:12;100456.16;;;20.65;53.01
46710;BME280;32442;51.514;-0.178;2022-10-16T03:04:39;100444.91;;;20.65;52.74
46710;BME280;32442;51.514;-0.178;2022-10-16T03:07:05;100460.94;;;20.65;52.77
46710;BME280;32442;51.514;-0.178;2022-10-16T03:09:32;100456.47;;;20.64;52.59
46710;BME280;32442;51.514;-0.178;2022-10-16T03:11:58;100462.91;;;20.64;52.46
46710;BME280;32442;51.514;-0.178;2022-10-16T03:14:25;100462.41;;;20.62;52.72
46710;BME280;32442;51.514;-0.178;2022-10-16T03:17:12;100465.22;;;20.62;52.47
46710;BME280;32442;51.514;-0.178;2022-10-16T03:19:39;100468.03;;;20.62;52.32
46710;BME280;32442;51.514;-0.178;2022-10-16T03:22:06;100465.72;;;20.64;52.74
46710;BME280;32442;51.514;-0.178;2022-10-16T03:24:32;100470.50;;;20.64;52.69
46710;BME280;32442;51.514;-0.178;2022-10-16T03:26:59;100480.06;;;20.63;52.85
46710;BME280;32442;51.514;-0.178;2022-10-16T03:29:25;100472.28;;;20.60;52.50
46710;BME280;32442;51.514;-0.178;2022-10-16T03:31:52;100469.78;;;20.58;52.70
46710;BME280;32442;51.514;-0.178;2022-10-16T03:34:19;100476.56;;;20.57;52.58
46710;BME280;32442;51.514;-0.178;2022-10-16T03:36:45;100468.47;;;20.56;52.40
46710;BME280;32442;51.514;-0.178;2022-10-16T03:39:12;100475.22;;;20.55;52.61
46710;BME280;32442;51.514;-0.178;2022-10-16T03:41:39;100477.19;;;20.54;52.52
46710;BME280;32442;51.514;-0.178;2022-10-16T03:44:05;100478.38;;;20.53;52.68
46710;BME280;32442;51.514;-0.178;2022-10-16T03:46:32;100480.66;;;20.51;52.64
46710;BME280;32442;51.514;-0.178;2022-10-16T03:48:59;100479.81;;;20.51;53.02
46710;BME280;32442;51.514;-0.178;2022-10-16T03:51:25;100485.44;;;20.51;52.75
46710;BME280;32442;51.514;-0.178;2022-10-16T03:53:52;100501.78;;;20.49;52.83
46710;BME280;32442;51.514;-0.178;2022-10-16T03:56:19;100502.91;;;20.48;52.51
46710;BME280;32442;51.514;-0.178;2022-10-16T03:58:45;100503.22;;;20.46;52.60
46710;BME280;32442;51.514;-0.178;2022-10-16T04:01:12;100506.34;;;20.45;52.66
46710;BME280;32442;51.514;-0.178;2022-10-16T04:03:39;100508.66;;;20.42;52.58
46710;BME280;32442;51.514;-0.178;2022-10-16T04:06:05;100513.44;;;20.42;52.81
46710;BME280;32442;51.514;-0.178;2022-10-16T04:08:32;100519.03;;;20.42;52.76
46710;BME280;32442;51.514;-0.178;2022-10-16T04:11:01;100522.16;;;20.40;52.57
46710;BME280;32442;51.514;-0.178;2022-10-16T04:13:27;100528.13;;;20.39;52.54
46710;BME280;32442;51.514;-0.178;2022-10-16T04:15:55;100527.59;;;20.37;52.85
46710;BME280;32442;51.514;-0.178;2022-10-16T04:18:21;100532.38;;;20.36;52.41
46710;BME280;32442;51.514;-0.178;2022-10-16T04:20:48;100534.69;;;20.34;52.52
46710;BME280;32442;51.514;-0.178;2022-10-16T04:23:15;100535.81;;;20.33;52.87
46710;BME280;32442;51.514;-0.178;2022-10-16T04:25:41;100540.59;;;20.33;52.88
46710;BME280;32442;51.514;-0.178;2022-10-16T04:28:08;100553.78;;;20.32;52.61
46710;BME280;32442;51.514;-0.178;2022-10-16T04:30:37;100558.56;;;20.32;52.65
46710;BME280;32442;51.514;-0.178;2022-10-16T04:33:03;100559.72;;;20.31;52.77
46710;BME280;32442;51.514;-0.178;2022-10-16T04:35:30;100564.50;;;20.30;53.09
46710;BME280;32442;51.514;-0.178;2022-10-16T04:37:57;100572.09;;;20.30;52.68
46710;BME280;32442;51.514;-0.178;2022-10-16T04:40:24;100577.97;;;20.28;53.02
46710;BME280;32442;51.514;-0.178;2022-10-16T04:42:50;100590.03;;;20.29;53.07
46710;BME280;32442;51.514;-0.178;2022-10-16T04:45:17;100589.22;;;20.28;53.32
46710;BME280;32442;51.514;-0.178;2022-10-16T04:47:44;100603.22;;;20.28;52.96
46710;BME280;32442;51.514;-0.178;2022-10-16T04:50:10;100596.28;;;20.26;53.35
46710;BME280;32442;51.514;-0.178;2022-10-16T04:52:37;100601.91;;;20.26;53.29
46710;BME280;32442;51.514;-0.178;2022-10-16T04:55:04;100604.72;;;20.26;53.20
46710;BME280;32442;51.514;-0.178;2022-10-16T04:57:37;100609.47;;;20.25;53.20
46710;BME280;32442;51.514;-0.178;2022-10-16T05:00:07;100615.41;;;20.24;53.01
46710;BME280;32442;51.514;-0.178;2022-10-16T05:02:34;100619.88;;;20.25;52.97
46710;BME280;32442;51.514;-0.178;2022-10-16T05:05:01;100624.66;;;20.24;53.36
46710;BME280;32442;51.514;-0.178;2022-10-16T05:07:28;100629.44;;;20.24;53.03
46710;BME280;32442;51.514;-0.178;2022-10-16T05:10:00;100643.75;;;20.22;53.40
46710;BME280;32442;51.514;-0.178;2022-10-16T05:12:27;100636.50;;;20.21;53.11
46710;BME280;32442;51.514;-0.178;2022-10-16T05:14:54;100644.09;;;20.21;53.24
46710;BME280;32442;51.514;-0.178;2022-10-16T05:17:25;100644.09;;;20.21;53.27
46710;BME280;32442;51.514;-0.178;2022-10-16T05:20:10;100645.22;;;20.20;53.11
46710;BME280;32442;51.514;-0.178;2022-10-16T05:22:36;100653.94;;;20.18;53.57
46710;BME280;32442;51.514;-0.178;2022-10-16T05:25:03;100658.72;;;20.18;53.45
46710;BME280;32442;51.514;-0.178;2022-10-16T05:27:33;100654.28;;;20.17;53.55
46710;BME280;32442;51.514;-0.178;2022-10-16T05:30:07;100659.06;;;20.16;53.39
46710;BME280;32442;51.514;-0.178;2022-10-16T05:32:37;100670.28;;;20.16;53.46
46710;BME280;32442;51.514;-0.178;2022-10-16T05:35:04;100672.25;;;20.16;53.39
46710;BME280;32442;51.514;-0.178;2022-10-16T05:37:36;100682.63;;;20.15;53.51
46710;BME280;32442;51.514;-0.178;2022-10-16T05:40:03;100680.13;;;20.14;53.17
46710;BME280;32442;51.514;-0.178;2022-10-16T05:42:31;100694.16;;;20.14;53.39
46710;BME280;32442;51.514;-0.178;2022-10-16T05:44:57;100694.50;;;20.12;53.20
46710;BME280;32442;51.514;-0.178;2022-10-16T05:47:24;100700.09;;;20.12;53.32
46710;BME280;32442;51.514;-0.178;2022-10-16T05:49:51;100694.78;;;20.11;53.40
46710;BME280;32442;51.514;-0.178;2022-10-16T05:52:17;100700.41;;;20.11;53.54
46710;BME280;32442;51.514;-0.178;2022-10-16T05:54:44;100703.50;;;20.09;53.43
46710;BME280;32442;51.514;-0.178;2022-10-16T05:57:11;100704.63;;;20.08;53.15
46710;BME280;32442;51.514;-0.178;2022-10-16T05:59:37;100711.09;;;20.09;53.59
46710;BME280;32442;51.514;-0.178;2022-10-16T06:02:04;100707.44;;;20.08;53.20
46710;BME280;32442;51.514;-0.178;2022-10-16T06:04:31;100720.66;;;20.08;53.38
46710;BME280;32442;51.514;-0.178;2022-10-16T06:06:58;100721.47;;;20.08;53.46
46710;BME280;32442;51.514;-0.178;2022-10-16T06:09:26;100725.44;;;20.07;53.25
46710;BME280;32442;51.514;-0.178;2022-10-16T06:11:53;100724.59;;;20.07;53.25
46710;BME280;32442;51.514;-0.178;2022-10-16T06:14:19;100723.47;;;20.08;53.22
46710;BME280;32442;51.514;-0.178;2022-10-16T06:16:46;100721.81;;;20.07;53.63
46710;BME280;32442;51.514;-0.178;2022-10-16T06:19:13;100724.28;;;20.08;53.94
46710;BME280;32442;51.514;-0.178;2022-10-16T06:21:40;100738.00;;;20.10;54.37
46710;BME280;32442;51.514;-0.178;2022-10-16T06:24:07;100728.94;;;20.13;54.54
46710;BME280;32442;51.514;-0.178;2022-10-16T06:26:34;100739.56;;;20.16;54.83
46710;BME280;32442;51.514;-0.178;2022-10-16T06:29:00;100732.19;;;20.20;54.61
46710;BME280;32442;51.514;-0.178;2022-10-16T06:31:28;100735.19;;;20.23;54.73
46710;BME280;32442;51.514;-0.178;2022-10-16T06:33:57;100746.31;;;20.28;54.89
46710;BME280;32442;51.514;-0.178;2022-10-16T06:36:24;100747.38;;;20.32;55.22
46710;BME280;32442;51.514;-0.178;2022-10-16T06:38:51;100747.28;;;20.37;55.37
46710;BME280;32442;51.514;-0.178;2022-10-16T06:41:19;100750.28;;;20.41;54.99
46710;BME280;32442;51.514;-0.178;2022-10-16T06:43:46;100738.47;;;20.44;55.45
46710;BME280;32442;51.514;-0.178;2022-10-16T06:46:14;100745.59;;;20.50;55.63
46710;BME280;32442;51.514;-0.178;2022-10-16T06:48:41;100742.19;;;20.53;55.23
46710;BME280;32442;51.514;-0.178;2022-10-16T06:53:38;100758.78;;;20.63;55.51
46710;BME280;32442;51.514;-0.178;2022-10-16T06:56:26;100781.16;;;20.68;54.88
46710;BME280;32442;51.514;-0.178;2022-10-16T06:58:53;100786.66;;;20.73;55.22
46710;BME280;32442;51.514;-0.178;2022-10-16T07:01:21;100784.88;;;20.77;55.34
46710;BME280;32442;51.514;-0.178;2022-10-16T07:03:48;100793.19;;;20.82;55.09
46710;BME280;32442;51.514;-0.178;2022-10-16T07:06:16;100805.47;;;20.86;54.89
46710;BME280;32442;51.514;-0.178;2022-10-16T07:08:44;100809.00;;;20.92;55.29
46710;BME280;32442;51.514;-0.178;2022-10-16T07:11:12;100806.91;;;20.98;55.24
46710;BME280;32442;51.514;-0.178;2022-10-16T07:13:40;100816.38;;;21.02;55.19
46710;BME280;32442;51.514;-0.178;2022-10-16T07:16:07;100816.25;;;21.07;55.19
46710;BME280;32442;51.514;-0.178;2022-10-16T07:18:34;100823.75;;;21.11;54.95
46710;BME280;32442;51.514;-0.178;2022-10-16T07:23:31;100827.81;;;21.19;54.74
46710;BME280;32442;51.514;-0.178;2022-10-16T07:25:57;100831.63;;;21.23;55.00
46710;BME280;32442;51.514;-0.178;2022-10-16T07:28:24;100850.38;;;21.27;54.75
46710;BME280;32442;51.514;-0.178;2022-10-16T07:30:51;100845.78;;;21.32;54.61
46710;BME280;32442;51.514;-0.178;2022-10-16T07:33:18;100838.69;;;21.34;54.54
46710;BME280;32442;51.514;-0.178;2022-10-16T07:35:48;100844.50;;;21.38;54.30
46710;BME280;32442;51.514;-0.178;2022-10-16T07:38:16;100839.09;;;21.41;54.20
46710;BME280;32442;51.514;-0.178;2022-10-16T07:40:42;100853.31;;;21.45;54.18
46710;BME280;32442;51.514;-0.178;2022-10-16T07:43:09;100857.50;;;21.47;54.29
46710;BME280;32442;51.514;-0.178;2022-10-16T11:06:40;101006.28;;;20.01;51.59
46710;BME280;32442;51.514;-0.178;2022-10-16T11:09:37;101006.75;;;20.08;51.59
46710;BME280;32442;51.514;-0.178;2022-10-16T11:14:40;101005.97;;;20.21;50.82
46710;BME280;32442;51.514;-0.178;2022-10-16T11:17:23;101015.13;;;20.26;50.88
46710;BME280;32442;51.514;-0.178;2022-10-16T11:20:01;101009.16;;;20.33;50.63
46710;BME280;32442;51.514;-0.178;2022-10-16T11:22:36;101018.03;;;20.40;50.83
46710;BME280;32442;51.514;-0.178;2022-10-16T11:27:37;101002.69;;;20.51;50.50
46710;BME280;32442;51.514;-0.178;2022-10-16T11:30:08;100993.06;;;20.57;50.86
46710;BME280;32442;51.514;-0.178;2022-10-16T11:32:47;101002.19;;;20.63;50.61
46710;BME280;32442;51.514;-0.178;2022-10-16T11:38:09;100991.63;;;20.73;50.48
46710;BME280;32442;51.514;-0.178;2022-10-16T11:40:40;100984.78;;;20.79;50.46
46710;BME280;32442;51.514;-0.178;2022-10-16T11:43:17;100986.97;;;20.82;50.56
46710;BME280;32442;51.514;-0.178;2022-10-16T11:45:49;100994.47;;;20.87;50.09
46710;BME280;32442;51.514;-0.178;2022-10-16T11:48:20;100998.59;;;20.90;49.86
46710;BME280;32442;51.514;-0.178;2022-10-16T11:51:00;100992.06;;;20.94;49.96
46710;BME280;32442;51.514;-0.178;2022-10-16T11:56:03;100992.50;;;21.01;49.72
46710;BME280;32442;51.514;-0.178;2022-10-16T11:58:37;100990.19;;;21.03;49.23
46710;BME280;32442;51.514;-0.178;2022-10-16T12:08:47;100989.50;;;21.11;48.92
46710;BME280;32442;51.514;-0.178;2022-10-16T12:16:33;100990.25;;;21.17;48.73
46710;BME280;32442;51.514;-0.178;2022-10-16T12:19:14;100991.06;;;21.17;48.62
46710;BME280;32442;51.514;-0.178;2022-10-16T12:21:42;100986.81;;;21.20;48.85
46710;BME280;32442;51.514;-0.178;2022-10-16T12:26:58;100989.00;;;21.23;48.18
46710;BME280;32442;51.514;-0.178;2022-10-16T12:31:59;100981.59;;;21.27;48.51
46710;BME280;32442;51.514;-0.178;2022-10-16T12:34:28;100983.28;;;21.28;48.04
46710;BME280;32442;51.514;-0.178;2022-10-16T12:36:55;100970.56;;;21.30;48.19
46710;BME280;32442;51.514;-0.178;2022-10-16T12:39:23;100967.44;;;21.32;48.29
46710;BME280;32442;51.514;-0.178;2022-10-16T12:42:02;100960.69;;;21.33;48.09
46710;BME280;32442;51.514;-0.178;2022-10-16T12:44:33;100963.19;;;21.35;48.53
46710;BME280;32442;51.514;-0.178;2022-10-16T12:47:01;100957.25;;;21.36;48.53
46710;BME280;32442;51.514;-0.178;2022-10-16T12:49:30;100964.22;;;21.39;48.50
46710;BME280;32442;51.514;-0.178;2022-10-16T12:51:57;100960.59;;;21.38;48.42
46710;BME280;32442;51.514;-0.178;2022-10-16T12:54:28;100965.88;;;21.40;48.09
46710;BME280;32442;51.514;-0.178;2022-10-16T12:56:59;100957.13;;;21.41;48.25
46710;BME280;32442;51.514;-0.178;2022-10-16T13:02:30;100958.81;;;21.42;48.24
46710;BME280;32442;51.514;-0.178;2022-10-16T13:05:14;100952.88;;;21.44;48.46
46710;BME280;32442;51.514;-0.178;2022-10-16T13:10:25;100957.03;;;21.46;48.28
46710;BME280;32442;51.514;-0.178;2022-10-16T13:15:30;100945.47;;;21.48;48.05
46710;BME280;32442;51.514;-0.178;2022-10-16T13:18:05;100953.91;;;21.48;47.75
46710;BME280;32442;51.514;-0.178;2022-10-16T13:28:34;100960.38;;;21.48;48.11
46710;BME280;32442;51.514;-0.178;2022-10-16T13:31:02;100965.66;;;21.50;48.06
46710;BME280;32442;51.514;-0.178;2022-10-16T13:33:35;100967.63;;;21.49;47.93
46710;BME280;32442;51.514;-0.178;2022-10-16T13:36:03;100970.78;;;21.48;47.96
46710;BME280;32442;51.514;-0.178;2022-10-16T13:38:31;100969.94;;;21.47;47.52
46710;BME280;32442;51.514;-0.178;2022-10-16T13:41:02;100958.38;;;21.49;47.81
46710;BME280;32442;51.514;-0.178;2022-10-16T13:43:33;100946.31;;;21.48;47.78
46710;BME280;32442;51.514;-0.178;2022-10-16T13:46:02;100945.47;;;21.48;47.74
46710;BME280;32442;51.514;-0.178;2022-10-16T13:48:30;100946.31;;;21.48;48.12
46710;BME280;32442;51.514;-0.178;2022-10-16T13:51:00;100935.06;;;21.48;48.08
46710;BME280;32442;51.514;-0.178;2022-10-16T13:53:27;100933.41;;;21.47;47.90
46710;BME280;32442;51.514;-0.178;2022-10-16T13:55:53;100936.22;;;21.47;48.05
46710;BME280;32442;51.514;-0.178;2022-10-16T13:58:20;100938.19;;;21.47;48.07
46710;BME280;32442;51.514;-0.178;2022-10-16T14:01:00;100932.56;;;21.47;47.94
46710;BME280;32442;51.514;-0.178;2022-10-16T14:03:28;100945.78;;;21.46;47.90
46710;BME280;32442;51.514;-0.178;2022-10-16T14:05:57;100946.94;;;21.45;48.10
46710;BME280;32442;51.514;-0.178;2022-10-16T14:08:25;100946.94;;;21.45;47.96
46710;BME280;32442;51.514;-0.178;2022-10-16T14:10:54;100954.22;;;21.46;48.27
46710;BME280;32442;51.514;-0.178;2022-10-16T14:13:45;100943.81;;;21.47;47.78
46710;BME280;32442;51.514;-0.178;2022-10-16T14:16:09;100950.56;;;21.46;48.09
46710;BME280;32442;51.514;-0.178;2022-10-16T14:18:37;100949.44;;;21.47;48.02
46710;BME280;32442;51.514;-0.178;2022-10-16T14:21:05;100942.97;;;21.46;47.95
46710;BME280;32442;51.514;-0.178;2022-10-16T14:23:37;100934.53;;;21.46;48.37
46710;BME280;32442;51.514;-0.178;2022-10-16T14:26:14;100942.13;;;21.46;48.18
46710;BME280;32442;51.514;-0.178;2022-10-16T14:28:42;100933.41;;;21.47;48.27
46710;BME280;32442;51.514;-0.178;2022-10-16T14:33:52;100933.91;;;21.49;48.42
46710;BME280;32442;51.514;-0.178;2022-10-16T14:36:20;100936.41;;;21.51;48.69
46710;BME280;32442;51.514;-0.178;2022-10-16T14:39:34;100937.75;;;21.53;48.95
46710;BME280;32442;51.514;-0.178;2022-10-16T14:41:47;100939.41;;;21.54;48.91
46710;BME280;32442;51.514;-0.178;2022-10-16T14:44:32;100942.41;;;21.58;49.09
46710;BME280;32442;51.514;-0.178;2022-10-16T14:47:09;100940.13;;;21.60;48.82
46710;BME280;32442;51.514;-0.178;2022-10-16T14:49:40;100937.84;;;21.62;48.91
46710;BME280;32442;51.514;-0.178;2022-10-16T14:52:10;100942.31;;;21.63;48.57
46710;BME280;32442;51.514;-0.178;2022-10-16T14:54:48;100934.72;;;21.63;48.72
46710;BME280;32442;51.514;-0.178;2022-10-16T14:57:16;100933.56;;;21.64;48.96
46710;BME280;32442;51.514;-0.178;2022-10-16T14:59:43;100932.09;;;21.67;48.76
46710;BME280;32442;51.514;-0.178;2022-10-16T15:02:24;100941.06;;;21.69;48.50
46710;BME280;32442;51.514;-0.178;2022-10-16T15:04:51;100946.38;;;21.70;48.82
46710;BME280;32442;51.514;-0.178;2022-10-16T15:07:18;100943.56;;;21.70;48.87
46710;BME280;32442;51.514;-0.178;2022-10-16T15:09:45;100943.56;;;21.70;48.41
46710;BME280;32442;51.514;-0.178;2022-10-16T15:12:14;100951.34;;;21.73;48.92
46710;BME280;32442;51.514;-0.178;2022-10-16T15:14:41;100951.88;;;21.76;48.84
46710;BME280;32442;51.514;-0.178;2022-10-16T15:17:09;100961.47;;;21.74;48.45
46710;BME280;32442;51.514;-0.178;2022-10-16T15:19:36;100951.88;;;21.76;48.84
46710;BME280;32442;51.514;-0.178;2022-10-16T15:22:03;100954.34;;;21.77;48.65
46710;BME280;32442;51.514;-0.178;2022-10-16T15:24:30;100948.72;;;21.77;48.58
46710;BME280;32442;51.514;-0.178;2022-10-16T15:26:56;100951.25;;;21.79;48.42
46710;BME280;32442;51.514;-0.178;2022-10-16T15:29:23;100941.97;;;21.78;48.64
46710;BME280;32442;51.514;-0.178;2022-10-16T15:31:51;100936.03;;;21.80;48.76
46710;BME280;32442;51.514;-0.178;2022-10-16T15:34:19;100929.56;;;21.79;48.56
46710;BME280;32442;51.514;-0.178;2022-10-16T15:36:46;100926.41;;;21.81;48.64
46710;BME280;32442;51.514;-0.178;2022-10-16T15:39:17;100925.28;;;21.82;48.50
46710;BME280;32442;51.514;-0.178;2022-10-16T15:41:49;100913.19;;;21.81;48.32
46710;BME280;32442;51.514;-0.178;2022-10-16T15:44:23;100914.03;;;21.82;48.72
46710;BME280;32442;51.514;-0.178;2022-10-16T15:46:53;100906.41;;;21.82;48.79
46710;BME280;32442;51.514;-0.178;2022-10-16T15:49:21;100896.84;;;21.83;48.83
46710;BME280;32442;51.514;-0.178;2022-10-16T15:51:51;100890.38;;;21.83;48.70
46710;BME280;32442;51.514;-0.178;2022-10-16T15:54:22;100900.78;;;21.82;48.42
46710;BME280;32442;51.514;-0.178;2022-10-16T15:56:49;100911.22;;;21.82;48.52
46710;BME280;32442;51.514;-0.178;2022-10-16T15:59:16;100912.88;;;21.83;48.60
46710;BME280;32442;51.514;-0.178;2022-10-16T16:01:48;100906.41;;;21.82;48.79
46710;BME280;32442;51.514;-0.178;2022-10-16T16:04:19;100898.28;;;21.81;48.85
46710;BME280;32442;51.514;-0.178;2022-10-16T16:07:06;100902.78;;;21.82;48.66
46710;BME280;32442;51.514;-0.178;2022-10-16T16:09:36;100897.50;;;21.80;48.53
46710;BME280;32442;51.514;-0.178;2022-10-16T16:12:04;100893.84;;;21.80;48.68
46710;BME280;32442;51.514;-0.178;2022-10-16T16:14:31;100894.69;;;21.80;48.83
46710;BME280;32442;51.514;-0.178;2022-10-16T16:16:57;100884.56;;;21.79;49.25
46710;BME280;32442;51.514;-0.178;2022-10-16T16:19:24;100885.41;;;21.80;49.38
46710;BME280;32442;51.514;-0.178;2022-10-16T16:21:52;100881.75;;;21.79;49.50
46710;BME280;32442;51.514;-0.178;2022-10-16T16:24:21;100881.75;;;21.79;49.20
46710;BME280;32442;51.514;-0.178;2022-10-16T16:26:48;100875.00;;;21.80;49.45
46710;BME280;32442;51.514;-0.178;2022-10-16T16:29:15;100862.56;;;21.81;49.72
46710;BME280;32442;51.514;-0.178;2022-10-16T16:31:43;100868.72;;;21.83;49.33
46710;BME280;32442;51.514;-0.178;2022-10-16T16:34:19;100866.75;;;21.84;49.43
46710;BME280;32442;51.514;-0.178;2022-10-16T16:36:46;100864.41;;;21.86;49.41
46710;BME280;32442;51.514;-0.178;2022-10-16T16:39:13;100855.66;;;21.87;49.46
46710;BME280;32442;51.514;-0.178;2022-10-16T16:41:40;100857.34;;;21.88;49.42
46710;BME280;32442;51.514;-0.178;2022-10-16T16:44:11;100851.38;;;21.90;49.66
46710;BME280;32442;51.514;-0.178;2022-10-16T16:46:38;100868.25;;;21.90;49.43
46710;BME280;32442;51.514;-0.178;2022-10-16T16:49:06;100863.16;;;21.92;49.42
46710;BME280;32442;51.514;-0.178;2022-10-16T16:51:33;100871.31;;;21.93;49.88
46710;BME280;32442;51.514;-0.178;2022-10-16T16:54:05;100883.06;;;21.95;49.65
46710;BME280;32442;51.514;-0.178;2022-10-16T16:56:33;100887.84;;;21.95;49.51
46710;BME280;32442;51.514;-0.178;2022-10-16T16:59:01;100877.44;;;21.95;49.35
46710;BME280;32442;51.514;-0.178;2022-10-16T17:01:28;100867.00;;;21.96;49.69
46710;BME280;32442;51.514;-0.178;2022-10-16T17:03:55;100867.53;;;21.98;49.74
46710;BME280;32442;51.514;-0.178;2022-10-16T17:06:24;100864.72;;;21.98;49.30
46710;BME280;32442;51.514;-0.178;2022-10-16T17:08:51;100853.13;;;21.99;49.34
46710;BME280;32442;51.514;-0.178;2022-10-16T17:11:19;100853.13;;;21.99;49.71
46710;BME280;32442;51.514;-0.178;2022-10-16T17:13:46;100853.97;;;22.00;49.74
46710;BME280;32442;51.514;-0.178;2022-10-16T17:16:17;100852.81;;;22.01;49.75
46710;BME280;32442;51.514;-0.178;2022-10-16T17:18:44;100860.13;;;22.02;49.69
46710;BME280;32442;51.514;-0.178;2022-10-16T17:21:11;100858.97;;;22.03;49.63